Wilbur Observed Data For Previous 48 Hours

Caption
Day and Hour Reservoir Elevation (behind dam)* Tailwater Elevation (below dam)* Average Hourly Discharge*
10/17/2017 2 AM EDT 1,648.48 1,583.20 245
10/17/2017 3 AM EDT 1,648.21 1,583.19 244
10/17/2017 4 AM EDT 1,647.92 1,583.17 240
10/17/2017 5 AM EDT 1,649.03 1,583.21 244
10/17/2017 6 AM EDT 1,648.81 1,583.20 249
10/17/2017 7 AM EDT 1,648.51 1,583.19 245
10/17/2017 8 AM EDT 1,648.23 1,583.18 244
10/17/2017 9 AM EDT 1,648.87 1,583.16 245
10/17/2017 10 AM EDT 1,648.63 1,583.07 245
10/17/2017 11 AM EDT 1,648.36 1,583.06 245
10/17/2017 12 PM EDT 1,648.09 1,583.06 242
10/17/2017 1 PM EDT 1,649.21 1,583.10 246
10/17/2017 2 PM EDT 1,648.83 1,583.80 250
10/17/2017 3 PM EDT 1,648.36 1,583.12 245
10/17/2017 4 PM EDT 1,648.07 1,583.10 242
10/17/2017 5 PM EDT 1,648.70 1,583.12 243
10/17/2017 6 PM EDT 1,648.46 1,583.12 245
10/17/2017 7 PM EDT 1,648.18 1,583.10 243
10/17/2017 8 PM EDT 1,649.31 1,583.15 247
10/17/2017 9 PM EDT 1,649.06 1,583.14 250
10/17/2017 10 PM EDT - 999.00 - 999.00 249
10/17/2017 11 PM EDT 1,648.50 1,583.11 245
10/18/2017 12 AM EDT 1,649.14 1,583.13 247
10/18/2017 1 AM EDT 1,648.89 1,583.13 250
10/18/2017 2 AM EDT 1,648.62 1,583.12 246
10/18/2017 3 AM EDT 1,648.34 1,583.12 245
10/18/2017 4 AM EDT 1,648.02 1,583.11 241
10/18/2017 5 AM EDT 1,648.68 1,583.14 243
10/18/2017 6 AM EDT 1,648.45 1,583.15 245
10/18/2017 7 AM EDT 1,648.19 1,583.13 243
10/18/2017 8 AM EDT 1,647.89 1,583.13 240
10/18/2017 9 AM EDT 1,647.60 1,583.12 238
10/18/2017 10 AM EDT 1,648.73 1,583.11 242
10/18/2017 11 AM EDT 1,648.50 1,583.10 245
10/18/2017 12 PM EDT 1,648.23 1,583.09 244
10/18/2017 1 PM EDT 1,647.91 1,583.08 240
10/18/2017 2 PM EDT 1,647.61 1,583.08 238
10/18/2017 3 PM EDT 1,648.74 1,583.12 242
10/18/2017 4 PM EDT 1,648.50 1,583.12 245
10/18/2017 5 PM EDT 1,648.24 1,583.11 244
10/18/2017 6 PM EDT 1,647.95 1,583.10 240
10/18/2017 7 PM EDT 1,647.64 1,583.08 239
10/18/2017 8 PM EDT 1,648.76 1,583.13 242
10/18/2017 9 PM EDT 1,648.53 1,583.12 245
10/18/2017 10 PM EDT 1,648.26 1,583.10 245
10/18/2017 11 PM EDT 1,647.97 1,583.09 240
10/19/2017 12 AM EDT 1,647.68 1,583.07 240
10/19/2017 1 AM EDT 1,648.80 1,583.12 242
10/19/2017 2 AM EDT 1,648.58 1,583.11 245
10/19/2017 3 AM EDT 1,648.30 1,583.10 245
10/19/2017 4 AM EDT 1,648.01 1,583.09 241
10/19/2017 5 AM EDT 1,649.15 1,583.14 245
10/19/2017 6 AM EDT 1,648.90 1,583.14 250
10/19/2017 7 AM EDT 1,648.64 1,583.14 246
10/19/2017 8 AM EDT 1,648.35 1,583.14 245
10/19/2017 9 AM EDT 1,648.04 1,583.11 241
10/19/2017 10 AM EDT 1,649.17 1,583.13 245
10/19/2017 11 AM EDT 1,648.91 1,583.12 250
10/19/2017 12 PM EDT 1,648.64 1,583.11 246
10/19/2017 1 PM EDT 1,648.30 1,583.20 245
10/19/2017 2 PM EDT 1,647.98 1,583.06 240
10/19/2017 3 PM EDT 1,649.11 1,583.10 245
10/19/2017 4 PM EDT 1,648.90 1,583.11 250
10/19/2017 5 PM EDT 1,648.62 1,583.09 246
10/19/2017 6 PM EDT 1,648.31 1,583.08 245
10/19/2017 7 PM EDT 1,648.04 1,583.07 241
10/19/2017 8 PM EDT 1,649.15 1,583.11 245
10/19/2017 9 PM EDT 1,648.90 1,583.10 250
10/19/2017 10 PM EDT 1,648.63 1,583.08 246
10/19/2017 11 PM EDT 1,648.36 1,583.07 245

Elevations are in feet above sea level. Discharges are in cubic feet per second and are reported at the end of the hour.